Accueil
METAR-TAF:

METAR-TAF

Aéroports :

New Century AirCenter

Olathe, Kansas, États-Unis

latitude: 38-49-28N, longitude: 094-53-13W, altitude: 331 m

Observation

Le bulletin a été fait il y a 54 minutes, à 19:53 UTC
Vent 9 kt de sud-est
Température 29°C
Humidité 62%
Pression 1015 hPa
Visibilité: 16.1 km
Ciel clair

METAR: KIXD 121953Z 14009KT 10SM CLR 29/21 A2998 RMK AO2 SLP139 T02940206

Heure: 15:47 (20:47 UTC)

Prévision

Le bulletin a été fait il y a 3 heures et 27 minutes, à 17:20 UTC
Prévision valable du 12 à 18 UTC au 13 à 18 UTC
Vent 8 kt de sud
Visibilité: 10 km
Nuages fragmentés à une hauteur de 4000 ft
A partir de 13 à 0100 UTC
Vent 8 kt de est/sud-est
Visibilité: 10 km
Nuages épars à une hauteur de 10000 ft

TAF: KIXD 121720Z 1218/1318 18008KT P6SM BKN040 FM130100 11008KT P6SM SCT100

Observations et prévisions météorologiques de plus de 4000 aéroports (messages METAR et TAF).

Les stations disponibles sont représentées par des disques jaunes et rouges sur la carte.

Passer la souris dessus pour voir le nom de la station.

Cliquer dessus pour voir les observations et prévisions météorologiques.

Pour changer de carte: cliquez sur les boutons verts avec une croix noire pour zoomer, sur le bouton vert avec un tiret pour effectuer un zoom arrière, ou sur les flèches vertes pour les cartes adjacentes.


METAR-TAF: